Terminal Aerodrome Forecast
Issued by NWS

Home | Current Version | Previous Version | Graphics & Text | Print | Product List | Glossary On
Versions: 1 2 3 4 5 6 7 8 9 10 11 12
000
FTUS45 KGGW 171128
TAFOLF
TAF
KOLF 171128Z 1712/1812 VRB05KT P6SM FEW220
     FM171600 31009KT P6SM SCT190
     FM171900 32013KT P6SM SCT140
     FM180200 36009KT P6SM FEW110=

USA.gov is the U.S. government's official web portal to all federal, state and local government web resources and services.